Time;durP1;ratioP1;P1;durP2;ratioP2;P2;SDS_P1;SDS_P2;PMS_P1;PMS_P2;Temp;Humidity;BMP_temperature;BMP_pressure;BME280_temperature;BME280_humidity;BME280_pressure;Samples;Min_cycle;Max_cycle;Signal;HPM_P1;HPM_P2
2023/11/09 00:01:30;;;;;;;5.22;2.83;;;;;;;8.90;71.94;99780.00;6169579;23;20004;-94
2023/11/09 00:03:56;;;;;;;3.35;2.80;;;;;;;8.86;70.81;99767.28;6169215;23;20007;-94
2023/11/09 00:06:22;;;;;;;3.13;2.67;;;;;;;8.86;70.37;99764.59;6169070;23;20004;-94
2023/11/09 00:08:48;;;;;;;3.03;2.58;;;;;;;9.04;70.86;99795.75;6170530;23;20000;-94
2023/11/09 00:11:14;;;;;;;2.97;2.65;;;;;;;8.85;70.16;99781.78;6169539;23;20359;-94
2023/11/09 00:13:40;;;;;;;4.05;2.45;;;;;;;8.74;71.87;99770.09;6169701;23;20011;-95
2023/11/09 00:16:06;;;;;;;2.75;2.40;;;;;;;8.73;70.63;99775.72;6169846;23;20427;-95
2023/11/09 00:18:31;;;;;;;3.90;2.55;;;;;;;8.73;70.19;99773.81;6170195;23;20000;-95
2023/11/09 00:20:58;;;;;;;4.05;2.72;;;;;;;8.65;70.39;99767.03;6145285;23;19996;-95
2023/11/09 00:23:23;;;;;;;2.95;2.63;;;;;;;8.60;71.24;99774.97;6169216;23;20028;-94
2023/11/09 00:25:49;;;;;;;4.80;2.97;;;;;;;8.82;70.57;99799.22;6145794;23;20009;-95
2023/11/09 00:28:15;;;;;;;3.60;2.90;;;;;;;8.58;71.77;99773.63;6170506;23;20086;-94
2023/11/09 00:30:42;;;;;;;5.05;3.00;;;;;;;8.60;72.00;99791.09;6145621;23;20012;-94
2023/11/09 00:33:07;;;;;;;3.92;2.72;;;;;;;8.59;72.27;99788.66;6170791;23;20000;-95
2023/11/09 00:35:33;;;;;;;4.28;3.88;;;;;;;8.68;72.19;99811.34;6146643;23;20409;-94
2023/11/09 00:38:00;;;;;;;3.97;3.08;;;;;;;8.61;72.05;99806.16;6171464;23;20024;-95
2023/11/09 00:40:30;;;;;;;3.47;3.10;;;;;;;8.54;71.88;99791.25;6170816;23;20504;-94
2023/11/09 00:42:56;;;;;;;4.60;2.85;;;;;;;8.49;71.69;99789.31;6170966;23;20005;-95
2023/11/09 00:45:21;;;;;;;3.25;2.70;;;;;;;8.65;71.10;99796.56;6146284;23;20058;-95
2023/11/09 00:47:48;;;;;;;4.70;2.53;;;;;;;8.53;70.68;99774.34;6170014;23;20007;-95
2023/11/09 00:50:13;;;;;;;4.30;2.53;;;;;;;8.54;70.07;99773.28;6169017;23;20012;-96
2023/11/09 00:52:44;;;;;;;4.72;2.53;;;;;;;8.78;70.38;99799.94;6143916;23;20407;-96
2023/11/09 00:55:10;;;;;;;3.28;2.70;;;;;;;8.70;71.04;99809.22;6170525;23;20070;-95
2023/11/09 00:57:36;;;;;;;5.72;2.72;;;;;;;8.57;70.19;99796.13;6169335;23;19996;-96
2023/11/09 01:00:10;;;;;;;3.38;2.72;;;;;;;8.45;70.31;99764.84;6146400;23;20001;-95
2023/11/09 01:02:38;;;;;;;5.00;2.63;;;;;;;8.47;70.30;99786.06;6170412;23;20061;-94
2023/11/09 01:05:06;;;;;;;3.13;2.45;;;;;;;8.40;70.50;99778.13;6145236;23;20367;-94
2023/11/09 01:07:32;;;;;;;3.58;2.53;;;;;;;8.30;69.18;99768.06;6144760;23;20058;-93
2023/11/09 01:09:58;;;;;;;2.85;2.20;;;;;;;8.33;68.62;99774.81;6168098;23;20079;-95
2023/11/09 01:12:25;;;;;;;3.67;2.40;;;;;;;8.55;68.86;99795.56;6194056;23;20335;-94
2023/11/09 01:14:52;;;;;;;2.80;2.40;;;;;;;8.41;69.47;99785.16;6169384;23;20024;-95
2023/11/09 01:17:18;;;;;;;3.28;2.72;;;;;;;8.48;69.71;99803.78;6145436;23;20001;-94
2023/11/09 01:19:44;;;;;;;2.67;2.05;;;;;;;8.54;68.13;99794.75;6169903;23;20059;-95
2023/11/09 01:22:09;;;;;;;4.03;2.50;;;;;;;8.38;70.31;99787.47;6169075;23;20000;-95
2023/11/09 01:24:35;;;;;;;4.07;2.40;;;;;;;8.33;70.20;99779.38;6170165;23;20032;-96
2023/11/09 01:27:01;;;;;;;3.13;2.40;;;;;;;8.41;70.16;99787.03;6169122;23;20412;-95
2023/11/09 01:29:29;;;;;;;4.75;2.50;;;;;;;8.29;70.41;99765.63;6144552;23;20014;-95
2023/11/09 01:31:58;;;;;;;3.08;2.60;;;;;;;8.42;70.10;99780.59;6145026;23;20398;-93
2023/11/09 01:34:28;;;;;;;3.30;2.17;;;;;;;8.33;70.19;99763.25;6168834;23;20328;-94
2023/11/09 01:36:54;;;;;;;3.35;2.30;;;;;;;8.29;70.08;99754.88;6168369;23;20083;-93
2023/11/09 01:39:23;;;;;;;2.60;1.95;;;;;;;8.28;68.83;99750.59;6169191;23;19996;-93
2023/11/09 01:41:48;;;;;;;2.63;2.15;;;;;;;8.42;70.00;99767.19;6168928;23;20011;-95
2023/11/09 01:44:15;;;;;;;2.92;1.73;;;;;;;8.47;68.63;99769.97;6169469;23;20068;-94
2023/11/09 01:46:43;;;;;;;2.22;1.88;;;;;;;8.40;67.50;99745.13;6144198;23;20023;-94
2023/11/09 01:49:09;;;;;;;2.75;2.03;;;;;;;8.30;67.38;99729.69;6168918;23;20087;-93
2023/11/09 01:51:35;;;;;;;2.50;1.85;;;;;;;8.26;67.62;99734.72;6143748;23;20317;-94
2023/11/09 01:54:00;;;;;;;3.75;2.00;;;;;;;8.35;67.62;99751.22;6168837;23;19992;-95
2023/11/09 01:56:26;;;;;;;2.30;1.85;;;;;;;8.35;67.04;99755.78;6169202;23;20000;-95
2023/11/09 01:58:55;;;;;;;4.18;1.77;;;;;;;8.46;67.92;99776.38;6144647;23;20423;-94
2023/11/09 02:01:21;;;;;;;2.47;1.83;;;;;;;8.32;68.25;99767.78;6168695;23;20004;-96
2023/11/09 02:03:50;;;;;;;4.28;2.40;;;;;;;8.16;68.53;99739.13;6193354;23;20005;-93
2023/11/09 02:06:18;;;;;;;2.15;1.73;;;;;;;8.30;68.27;99753.84;6144419;23;20008;-93
2023/11/09 02:08:47;;;;;;;4.43;2.00;;;;;;;8.24;67.53;99752.94;6168425;23;19985;-93
2023/11/09 02:11:13;;;;;;;2.47;1.83;;;;;;;8.20;68.05;99751.00;6145330;23;20013;-95
2023/11/09 02:13:39;;;;;;;3.00;2.05;;;;;;;8.33;68.14;99779.38;6143704;23;20083;-93
2023/11/09 02:16:05;;;;;;;2.00;1.80;;;;;;;8.14;67.80;99755.44;6144286;23;20451;-93
2023/11/09 02:18:31;;;;;;;2.15;1.77;;;;;;;8.15;67.57;99753.56;6145364;23;20011;-94
2023/11/09 02:20:57;;;;;;;2.10;1.90;;;;;;;8.16;68.35;99756.03;6145727;23;20468;-93
2023/11/09 02:23:26;;;;;;;2.88;2.30;;;;;;;8.17;67.41;99756.81;6168163;23;20024;-94
2023/11/09 02:25:52;;;;;;;2.20;1.90;;;;;;;8.12;67.45;99762.13;6146298;23;20004;-94
2023/11/09 02:28:18;;;;;;;4.38;2.00;;;;;;;8.23;67.22;99798.78;6169819;23;20008;-95
2023/11/09 02:30:44;;;;;;;3.03;1.92;;;;;;;8.26;67.62;99804.47;6143720;23;20011;-94
2023/11/09 02:33:09;;;;;;;2.28;1.95;;;;;;;8.02;67.71;99784.19;6169404;23;20035;-94
2023/11/09 02:35:36;;;;;;;2.33;1.83;;;;;;;8.02;68.29;99797.63;6168016;23;20428;-95
2023/11/09 02:38:07;;;;;;;2.15;1.88;;;;;;;7.94;67.16;99776.56;6168441;23;20004;-95
2023/11/09 02:40:36;;;;;;;3.55;1.75;;;;;;;7.98;67.24;99783.06;6168653;23;19996;-93
2023/11/09 02:43:09;;;;;;;2.50;1.95;;;;;;;8.23;66.33;99810.31;6168158;23;20077;-95
2023/11/09 02:45:43;;;;;;;2.50;1.52;;;;;;;8.05;66.88;99784.53;6143816;23;19997;-94
2023/11/09 02:48:09;;;;;;;2.90;1.90;;;;;;;8.14;66.58;99811.78;6170667;23;20005;-94
2023/11/09 02:50:35;;;;;;;2.50;1.92;;;;;;;8.05;67.51;99799.78;6144720;23;20032;-94
2023/11/09 02:53:00;;;;;;;2.42;1.90;;;;;;;8.18;67.19;99834.38;6167881;23;20039;-94
2023/11/09 02:55:28;;;;;;;4.00;2.08;;;;;;;7.98;66.32;99802.63;6169959;23;19993;-94
2023/11/09 02:57:56;;;;;;;2.70;1.85;;;;;;;8.03;66.78;99813.47;6145730;23;20001;-92
2023/11/09 03:00:22;;;;;;;4.28;1.73;;;;;;;8.06;65.77;99812.16;6143741;23;19977;-94
2023/11/09 03:02:47;;;;;;;2.33;1.70;;;;;;;8.06;66.36;99812.97;6143737;23;20005;-95
2023/11/09 03:05:18;;;;;;;3.45;1.50;;;;;;;8.03;66.55;99816.16;6168560;23;20079;-94
2023/11/09 03:07:43;;;;;;;2.00;1.40;;;;;;;8.25;65.83;99853.00;6146271;23;20005;-93
2023/11/09 03:10:10;;;;;;;1.75;1.45;;;;;;;8.23;65.97;99842.50;6167841;23;20026;-93
2023/11/09 03:12:35;;;;;;;2.83;1.80;;;;;;;8.15;67.08;99847.44;6192879;23;20011;-95
2023/11/09 03:15:03;;;;;;;2.08;1.50;;;;;;;8.06;67.76;99841.66;6143227;23;20005;-94
2023/11/09 03:17:28;;;;;;;1.92;1.65;;;;;;;8.10;67.37;99845.50;6168336;23;20071;-93
2023/11/09 03:19:54;;;;;;;3.63;1.52;;;;;;;8.07;67.13;99844.13;6167336;23;20009;-94
2023/11/09 03:22:20;;;;;;;2.45;1.60;;;;;;;8.02;66.85;99835.97;6168547;23;20000;-93
2023/11/09 03:24:45;;;;;;;1.77;1.58;;;;;;;8.19;65.79;99852.09;6166997;23;20402;-95
2023/11/09 03:27:11;;;;;;;2.08;1.60;;;;;;;8.01;67.99;99844.25;6168231;23;20005;-95
2023/11/09 03:29:37;;;;;;;1.85;1.60;;;;;;;7.97;68.36;99845.78;6168054;23;20005;-94
2023/11/09 03:32:05;;;;;;;2.70;2.40;;;;;;;7.98;67.68;99848.22;6167435;23;20023;-94
2023/11/09 03:34:31;;;;;;;2.25;1.58;;;;;;;7.97;68.59;99851.13;6168319;23;19997;-93
2023/11/09 03:36:57;;;;;;;4.18;1.60;;;;;;;7.93;67.66;99861.53;6144449;23;20063;-94
2023/11/09 03:39:24;;;;;;;3.88;1.67;;;;;;;7.89;67.78;99838.94;6145070;23;19996;-94
2023/11/09 03:41:51;;;;;;;5.40;1.70;;;;;;;7.94;68.34;99846.25;6169030;23;20005;-94
2023/11/09 03:44:16;;;;;;;4.30;1.80;;;;;;;7.80;68.60;99833.16;6167795;23;20004;-94
2023/11/09 03:46:42;;;;;;;2.38;1.67;;;;;;;7.94;68.79;99857.78;6167739;23;20058;-95
2023/11/09 03:49:09;;;;;;;4.20;1.73;;;;;;;7.88;67.76;99853.38;6168082;23;20077;-93
2023/11/09 03:51:35;;;;;;;1.73;1.45;;;;;;;7.87;66.47;99847.22;6167809;23;20032;-94
2023/11/09 03:54:03;;;;;;;3.05;1.60;;;;;;;7.78;67.40;99826.38;6167543;23;20012;-94
2023/11/09 03:56:32;;;;;;;2.10;1.42;;;;;;;7.99;66.27;99855.22;6169351;23;20035;-94
2023/11/09 03:58:57;;;;;;;3.53;2.00;;;;;;;7.79;67.27;99836.88;6144494;23;19997;-94
2023/11/09 04:01:23;;;;;;;2.45;1.58;;;;;;;7.79;68.25;99844.91;6167979;23;20022;-95
2023/11/09 04:03:49;;;;;;;2.88;1.70;;;;;;;7.72;68.45;99852.28;6170842;23;20008;-93
2023/11/09 04:06:16;;;;;;;3.20;2.00;;;;;;;7.52;69.96;99846.50;6169486;23;19996;-94
2023/11/09 04:08:42;;;;;;;2.55;1.90;;;;;;;7.62;69.99;99868.97;6170288;23;20004;-94
2023/11/09 04:11:08;;;;;;;3.95;1.77;;;;;;;7.56;69.96;99871.78;6169785;23;20409;-96
2023/11/09 04:13:34;;;;;;;3.08;1.95;;;;;;;7.30;70.21;99844.44;6168793;23;20032;-95
2023/11/09 04:16:00;;;;;;;3.33;2.20;;;;;;;7.34;70.83;99855.50;6144971;23;20004;-95
2023/11/09 04:18:33;;;;;;;2.88;1.95;;;;;;;7.20;71.10;99847.72;6182126;23;19992;-95
2023/11/09 04:21:04;;;;;;;2.58;2.00;;;;;;;7.16;71.16;99848.41;6184267;23;20016;-96
2023/11/09 04:23:56;;;;;;;;;;;;;;;;;;;;;
2023/11/09 04:26:25;;;;;;;3.78;2.40;;;;;;;7.08;71.88;99869.16;6216429;23;20001;-96
2023/11/09 04:28:53;;;;;;;3.80;2.50;;;;;;;7.00;71.99;99884.75;6181193;23;20009;-96
2023/11/09 04:31:29;;;;;;;5.43;2.20;;;;;;;7.08;71.05;99887.09;6178444;23;19988;-96
2023/11/09 04:34:04;;;;;;;5.57;1.88;;;;;;;6.96;71.38;99879.03;6179506;23;20166;-96
2023/11/09 04:36:34;;;;;;;4.75;2.20;;;;;;;7.01;70.97;99873.78;6179960;23;20015;-96
2023/11/09 04:39:12;;;;;;;3.63;2.20;;;;;;;7.11;70.93;99875.91;6162567;23;20009;-96
2023/11/09 04:41:47;;;;;;;5.70;2.60;;;;;;;7.07;70.93;99869.38;6212178;23;20007;-96
2023/11/09 04:44:22;;;;;;;3.05;2.15;;;;;;;7.27;70.85;99909.19;6156033;23;20007;-95
2023/11/09 04:46:48;;;;;;;2.47;1.90;;;;;;;7.15;71.49;99895.81;6179496;23;20007;-94
2023/11/09 04:49:18;;;;;;;11.23;3.22;;;;;;;6.99;73.00;99893.81;6177037;23;20000;-95
2023/11/09 04:52:04;;;;;;;;;;;;;;;;;;;;;
2023/11/09 04:55:23;;;;;;;6.10;3.80;;;;;;;6.78;73.12;99898.69;6242284;23;19989;-95
2023/11/09 05:07:14;;;;;;;3.22;2.30;;;;;;;6.78;73.20;99920.09;6130171;23;20190;-95
2023/11/09 05:09:40;;;;;;;11.18;2.55;;;;;;;6.90;72.31;99925.47;6082212;23;20077;-94
2023/11/09 05:12:06;;;;;;;4.20;2.40;;;;;;;6.85;72.60;99920.81;6084957;23;20002;-96
2023/11/09 05:14:34;;;;;;;5.82;4.30;;;;;;;6.79;72.92;99929.75;6108516;23;20004;-95
2023/11/09 05:17:00;;;;;;;11.15;2.80;;;;;;;6.63;72.77;99911.69;6111271;23;20037;-96
2023/11/09 05:19:28;;;;;;;4.45;2.85;;;;;;;6.72;73.01;99937.06;6134394;23;19998;-96
2023/11/09 05:21:53;;;;;;;11.07;7.85;;;;;;;6.81;72.65;99941.06;6131996;23;20095;-95
2023/11/09 05:24:22;;;;;;;6.10;4.22;;;;;;;6.78;73.35;99938.00;6149361;23;20016;-96
2023/11/09 05:26:50;;;;;;;7.00;3.60;;;;;;;6.81;73.21;99945.59;6118599;23;19999;-96
2023/11/09 05:29:30;;;;;;;4.63;3.22;;;;;;;6.69;72.89;99942.88;6147941;23;20001;-94
2023/11/09 05:32:16;;;;;;;9.88;2.95;;;;;;;6.77;73.24;99957.81;6150125;23;20073;-96
2023/11/09 05:34:44;;;;;;;12.82;3.90;;;;;;;6.67;73.30;99956.50;6202470;23;20001;-96
2023/11/09 05:37:34;;;;;;;11.10;3.42;;;;;;;6.89;72.79;99982.75;6205349;23;20083;-96
2023/11/09 05:40:16;;;;;;;6.63;4.22;;;;;;;6.82;72.38;99957.91;6141950;23;20005;-95
2023/11/09 05:42:44;;;;;;;4.40;3.35;;;;;;;6.86;72.48;99962.59;6095392;23;20002;-96
2023/11/09 05:45:35;;;;;;;7.63;2.95;;;;;;;7.01;71.59;99990.78;6091487;23;20006;-95
2023/11/09 05:48:01;;;;;;;10.15;5.22;;;;;;;7.07;71.45;99979.97;6086925;23;20002;-96
2023/11/09 05:50:32;;;;;;;8.65;3.58;;;;;;;7.07;72.16;99993.34;6062948;23;20049;-94
2023/11/09 05:56:04;;;;;;;10.70;4.00;;;;;;;6.99;73.83;99969.63;6065552;23;20002;-96
2023/11/09 05:58:37;;;;;;;8.85;5.07;;;;;;;7.27;73.38;100021.69;6112382;23;20006;-96
2023/11/09 06:01:15;;;;;;;12.98;4.15;;;;;;;7.22;73.79;100018.88;6084870;23;20125;-95
2023/11/09 06:03:43;;;;;;;4.28;3.03;;;;;;;7.14;72.38;100003.97;6085528;23;20015;-93
2023/11/09 06:06:09;;;;;;;7.03;4.07;;;;;;;7.06;71.82;99982.91;6080932;23;20033;-93
2023/11/09 06:08:37;;;;;;;10.48;4.07;;;;;;;7.33;71.29;100018.09;6079043;23;20018;-93
2023/11/09 06:11:06;;;;;;;8.80;4.22;;;;;;;7.21;72.26;99990.47;6116278;23;20001;-92
2023/11/09 06:13:32;;;;;;;11.63;5.40;;;;;;;7.28;71.98;99996.53;6143992;23;19997;-92
2023/11/09 06:15:58;;;;;;;11.73;5.55;;;;;;;7.21;72.47;99993.16;6191690;23;20085;-91
2023/11/09 06:18:24;;;;;;;6.85;4.47;;;;;;;7.53;72.67;100028.47;6168390;23;20000;-92
2023/11/09 06:20:57;;;;;;;7.47;3.67;;;;;;;7.49;71.10;100005.88;6167450;23;20059;-92
2023/11/09 06:23:23;;;;;;;5.80;3.47;;;;;;;7.63;70.20;100023.34;6168031;23;20355;-91
2023/11/09 06:25:56;;;;;;;5.43;3.38;;;;;;;7.56;69.21;99997.72;6192820;23;20004;-93
2023/11/09 06:28:29;;;;;;;7.13;3.08;;;;;;;7.60;69.79;99997.03;6171999;23;20083;-92
2023/11/09 06:31:08;;;;;;;;;;;;;;;;;;;;;
2023/11/09 06:33:41;;;;;;;4.30;3.20;;;;;;;7.74;70.64;100005.66;6175430;23;20052;-93
2023/11/09 06:36:07;;;;;;;5.47;3.42;;;;;;;7.83;70.23;100014.97;6171649;23;20363;-93
2023/11/09 06:38:59;;;;;;;6.18;3.50;;;;;;;8.10;69.30;100038.59;6171328;23;20024;-94
2023/11/09 06:41:29;;;;;;;5.63;3.33;;;;;;;8.11;69.18;100018.75;6181600;23;20355;-91
2023/11/09 06:43:55;;;;;;;9.30;4.05;;;;;;;8.08;68.83;99998.59;6194464;23;20055;-91
2023/11/09 06:46:21;;;;;;;11.65;5.07;;;;;;;8.13;68.42;99994.41;6145924;23;20012;-91
2023/11/09 06:48:48;;;;;;;6.32;4.82;;;;;;;8.32;67.49;100014.63;6147361;23;20000;-93
2023/11/09 06:51:14;;;;;;;7.47;4.18;;;;;;;8.44;66.41;100006.59;6168191;23;20000;-91
2023/11/09 06:53:39;;;;;;;7.95;5.97;;;;;;;8.56;66.80;100015.41;6145117;23;20011;-92
2023/11/09 06:56:05;;;;;;;7.30;4.88;;;;;;;8.52;66.93;100003.53;6168428;23;20008;-92
2023/11/09 06:58:31;;;;;;;9.82;4.20;;;;;;;8.67;67.15;100025.31;6167677;23;19996;-92
2023/11/09 07:00:56;;;;;;;4.63;3.42;;;;;;;8.88;65.91;100039.09;6167620;23;20054;-91
2023/11/09 07:03:22;;;;;;;5.82;2.40;;;;;;;8.95;63.59;100029.03;6167295;23;19997;-92
2023/11/09 07:05:49;;;;;;;6.60;2.03;;;;;;;8.90;61.67;100019.00;6141587;23;20016;-92
2023/11/09 07:08:15;;;;;;;8.25;2.70;;;;;;;9.01;62.74;100011.94;6190665;23;20000;-91
2023/11/09 07:10:40;;;;;;;3.50;2.00;;;;;;;9.26;62.12;100035.75;6166958;23;20791;-91
2023/11/09 07:13:06;;;;;;;2.50;1.85;;;;;;;9.28;58.56;100012.13;6144505;23;20052;-89
2023/11/09 07:15:32;;;;;;;11.25;5.72;;;;;;;9.57;59.48;100047.00;6168449;23;20436;-92
2023/11/09 07:18:03;;;;;;;4.97;2.75;;;;;;;9.63;58.81;100043.31;6173509;23;20055;-91
2023/11/09 07:20:29;;;;;;;5.40;3.45;;;;;;;9.65;58.80;100013.47;6172168;23;20491;-95
2023/11/09 07:22:58;;;;;;;3.35;1.38;;;;;;;9.78;57.40;100025.78;6170012;23;20008;-92
2023/11/09 07:25:31;;;;;;;5.47;1.80;;;;;;;9.74;56.68;100017.38;6171266;23;20007;-96
2023/11/09 07:28:00;;;;;;;17.25;8.02;;;;;;;9.86;56.24;100017.31;6194972;23;20007;-94
2023/11/09 07:30:33;;;;;;;3.80;1.58;;;;;;;9.74;56.84;100005.81;6145015;23;20504;-95
2023/11/09 07:33:08;;;;;;;5.72;1.70;;;;;;;10.00;56.73;100044.63;6147284;23;20028;-94
2023/11/09 07:35:36;;;;;;;1.83;1.10;;;;;;;9.82;55.37;100008.91;6170159;23;20008;-94
2023/11/09 07:40:58;;;;;;;2.72;1.55;;;;;;;10.00;56.20;99996.22;6156305;23;20072;-92
2023/11/09 07:43:27;;;;;;;3.65;1.60;;;;;;;10.19;55.89;100016.41;6171598;23;20062;-91
2023/11/09 07:45:57;;;;;;;2.00;1.42;;;;;;;10.17;55.85;99996.16;6172079;23;20010;-92
2023/11/09 07:48:26;;;;;;;3.15;1.90;;;;;;;10.21;54.60;99998.13;6173473;23;20071;-94
2023/11/09 07:50:54;;;;;;;5.63;1.70;;;;;;;10.49;52.00;100032.13;6148046;23;20004;-93
2023/11/09 07:53:42;;;;;;;1.95;1.40;;;;;;;10.38;53.44;100029.56;6172658;23;20009;-90
2023/11/09 07:56:16;;;;;;;4.40;1.30;;;;;;;10.48;51.25;100030.50;6198216;23;20008;-93
2023/11/09 07:58:43;;;;;;;1.38;0.90;;;;;;;10.50;51.43;100017.59;6146257;23;20087;-93
2023/11/09 08:01:19;;;;;;;2.55;1.30;;;;;;;10.54;50.73;100023.28;6170444;23;20011;-92
2023/11/09 08:03:47;;;;;;;2.53;1.00;;;;;;;10.49;51.42;100007.06;6120955;23;20000;-95
2023/11/09 08:06:14;;;;;;;3.00;1.70;;;;;;;10.59;52.09;100009.88;6180831;23;20084;-94
2023/11/09 08:08:45;;;;;;;3.50;1.30;;;;;;;10.78;50.38;100023.81;6161088;23;20079;-94
2023/11/09 08:11:30;;;;;;;;;;;;;;;;;;;;;
2023/11/09 08:14:34;;;;;;;2.03;1.20;;;;;;;10.76;49.91;100015.19;6186384;23;20043;-93
2023/11/09 08:17:29;;;;;;;3.38;1.30;;;;;;;10.76;49.83;100011.69;6179528;23;20011;-94
2023/11/09 08:20:01;;;;;;;5.80;1.55;;;;;;;10.86;50.02;100012.59;6179532;23;20098;-94
2023/11/09 08:22:41;;;;;;;;;;;;;;;;;;;;;
2023/11/09 08:25:34;;;;;;;3.50;1.50;;;;;;;10.91;48.97;100009.97;6197396;23;20468;-94
2023/11/09 08:28:02;;;;;;;2.05;1.08;;;;;;;10.93;49.08;100017.75;6201260;23;20016;-94
2023/11/09 08:30:44;;;;;;;5.07;1.80;;;;;;;11.10;49.41;100023.03;6149126;23;20068;-93
2023/11/09 08:33:21;;;;;;;3.17;1.30;;;;;;;11.14;49.48;100013.38;6178335;23;20064;-94
2023/11/09 08:35:55;;;;;;;1.67;1.05;;;;;;;11.09;49.32;100002.56;6174522;23;20004;-95
2023/11/09 08:38:26;;;;;;;3.40;1.63;;;;;;;11.13;48.36;100004.47;6172782;23;20014;-94
2023/11/09 08:41:05;;;;;;;3.08;1.48;;;;;;;11.23;48.93;100016.44;6173532;23;20446;-96
2023/11/09 08:43:36;;;;;;;2.72;1.38;;;;;;;11.07;48.66;99999.31;6197231;23;20039;-94
2023/11/09 08:46:10;;;;;;;3.35;1.40;;;;;;;11.15;48.32;100009.63;6204518;23;20031;-95
2023/11/09 08:49:10;;;;;;;2.88;1.60;;;;;;;11.21;48.75;100026.66;6191775;23;20007;-96
2023/11/09 08:51:52;;;;;;;2.50;1.50;;;;;;;11.25;48.92;100025.88;6178705;23;20012;-95
2023/11/09 08:54:18;;;;;;;2.35;1.40;;;;;;;11.25;48.70;100014.28;6152304;23;20079;-93
2023/11/09 08:57:37;;;;;;;4.15;1.33;;;;;;;11.41;49.07;100032.19;6165962;23;20440;-91
2023/11/09 09:00:12;;;;;;;3.80;1.58;;;;;;;11.42;48.54;100028.44;6157637;23;20352;-92
2023/11/09 09:02:52;;;;;;;1.90;1.10;;;;;;;11.33;48.84;100003.84;6088176;23;20069;-91
2023/11/09 09:05:26;;;;;;;5.55;1.38;;;;;;;11.63;47.75;100036.69;6085820;23;20414;-94
2023/11/09 09:08:00;;;;;;;4.22;1.88;;;;;;;11.59;48.33;100014.81;6137676;23;20009;-96
2023/11/09 09:10:27;;;;;;;2.63;1.27;;;;;;;11.73;47.15;100017.88;6131905;23;20025;-93
2023/11/09 09:13:01;;;;;;;4.55;1.17;;;;;;;11.63;47.20;100017.81;6138552;23;20009;-94
2023/11/09 09:19:26;;;;;;;;;;;;;;;;;;;;;
2023/11/09 09:35:21;;;;;;;5.45;1.92;;;;;;;12.15;47.55;100006.25;6225436;22;20008;-96
2023/11/09 09:37:59;;;;;;;1.45;1.00;;;;;;;12.22;45.89;100030.31;6196780;23;20011;-93
2023/11/09 09:40:30;;;;;;;2.47;1.30;;;;;;;12.12;46.16;100013.00;6145481;23;20367;-94
2023/11/09 09:46:30;;;;;;;;;;;;;;;;;;;;;
2023/11/09 09:48:57;;;;;;;4.03;1.20;;;;;;;12.24;45.86;99985.78;6176627;23;20035;-94
2023/11/09 09:51:30;;;;;;;2.28;0.73;;;;;;;12.34;44.31;100004.69;6145254;23;20008;-95
2023/11/09 09:54:03;;;;;;;3.78;1.30;;;;;;;12.46;45.08;100017.19;6148977;23;20011;-94
2023/11/09 09:56:32;;;;;;;4.40;1.30;;;;;;;12.29;44.95;99993.91;6169980;23;19997;-95
2023/11/09 09:58:57;;;;;;;3.80;1.00;;;;;;;12.34;44.96;100009.31;6143803;23;20005;-91
2023/11/09 10:01:27;;;;;;;1.73;1.00;;;;;;;12.30;44.85;99994.72;6193455;23;20039;-92
2023/11/09 10:03:52;;;;;;;1.83;0.88;;;;;;;12.23;45.38;99992.25;6144383;23;20436;-90
2023/11/09 10:06:22;;;;;;;5.13;1.55;;;;;;;12.36;45.23;99990.13;6171259;23;20015;-91
2023/11/09 10:08:56;;;;;;;3.97;1.40;;;;;;;12.39;45.91;99993.13;6189903;23;19997;-93
2023/11/09 10:11:26;;;;;;;2.63;1.20;;;;;;;12.47;44.38;100006.13;6194033;23;20000;-91
2023/11/09 10:14:02;;;;;;;3.45;1.13;;;;;;;12.48;44.17;100006.94;6148048;23;20005;-92
2023/11/09 10:16:53;;;;;;;1.85;0.90;;;;;;;12.35;44.05;99981.25;6150528;23;20012;-94
2023/11/09 10:19:32;;;;;;;6.00;1.00;;;;;;;12.44;43.81;99986.94;6170394;23;19997;-94
2023/11/09 10:22:09;;;;;;;1.83;0.85;;;;;;;12.51;42.64;99991.00;6153309;23;20090;-95
2023/11/09 10:25:10;;;;;;;;;;;;;;;;;;;;;
2023/11/09 10:28:07;;;;;;;2.88;1.13;;;;;;;12.44;43.61;99965.31;6205752;23;20027;-95
2023/11/09 10:31:30;;;;;;;;;;;;;;;;;;;;;
2023/11/09 10:37:44;;;;;;;0.98;0.77;;;;;;;12.67;41.53;99997.25;6162774;23;20086;-93
2023/11/09 10:40:29;;;;;;;3.75;1.20;;;;;;;12.62;42.41;99978.34;6034248;23;20014;-95
2023/11/09 10:43:01;;;;;;;1.45;0.85;;;;;;;12.57;41.86;99975.59;6056282;23;20007;-92
2023/11/09 10:45:42;;;;;;;2.78;0.90;;;;;;;12.60;42.70;99988.59;6114109;23;20064;-92
2023/11/09 10:51:44;;;;;;;2.28;1.23;;;;;;;12.68;44.12;99987.28;6126346;23;20036;-93
2023/11/09 10:54:27;;;;;;;1.70;0.82;;;;;;;12.69;42.12;99970.78;6125010;23;20057;-91
2023/11/09 10:57:43;;;;;;;;;;;;;;;;;;;;;
2023/11/09 11:00:42;;;;;;;;;;;;;;;;;;;;;
2023/11/09 11:03:25;;;;;;;1.60;1.10;;;;;;;12.79;42.80;100002.41;6123236;23;20026;-95
2023/11/09 11:06:14;;;;;;;1.15;0.85;;;;;;;12.73;42.04;99984.56;6111584;23;20002;-93
2023/11/09 11:08:44;;;;;;;2.35;1.00;;;;;;;12.88;42.55;100011.59;6116919;23;20016;-91
2023/11/09 11:11:17;;;;;;;1.63;0.90;;;;;;;12.61;42.22;99971.28;6088970;23;20005;-93
2023/11/09 11:14:23;;;;;;;2.45;1.13;;;;;;;12.86;41.46;100000.25;6117408;23;20002;-95
2023/11/09 11:17:07;;;;;;;3.30;1.40;;;;;;;12.79;41.49;99978.09;6144803;23;19989;-96
2023/11/09 11:23:12;;;;;;;1.75;0.75;;;;;;;12.94;41.16;99990.81;6026073;23;20007;-94
2023/11/09 11:25:53;;;;;;;1.67;1.10;;;;;;;12.97;41.53;99989.44;6139661;23;20239;-94
2023/11/09 11:28:32;;;;;;;1.08;0.80;;;;;;;12.94;41.39;99982.69;6118727;23;20054;-94
2023/11/09 11:31:14;;;;;;;;;;;;;;;;;;;;;
2023/11/09 11:33:42;;;;;;;;;;;;;;;13.10;41.74;100008.66;6172981;23;20033;-93
2023/11/09 11:36:28;;;;;;;2.03;1.00;;;;;;;13.01;41.99;99979.72;6190479;23;19916;-94
2023/11/09 11:39:40;;;;;;;1.70;0.80;;;;;;;12.87;42.14;99964.06;6169152;23;20028;-93
2023/11/09 11:42:27;;;;;;;4.30;1.15;;;;;;;13.00;42.53;99975.41;6080788;23;20074;-96
2023/11/09 11:45:14;;;;;;;1.27;0.90;;;;;;;12.97;42.77;99970.53;6058438;23;20098;-94
2023/11/09 11:47:47;;;;;;;4.05;1.40;;;;;;;13.07;42.03;99982.19;6064895;23;20493;-91
2023/11/09 11:50:16;;;;;;;3.05;1.30;;;;;;;13.09;41.96;99968.38;6084582;23;20013;-92
2023/11/09 11:52:48;;;;;;;1.38;0.90;;;;;;;13.17;41.96;99970.53;6085014;23;20009;-92
2023/11/09 11:55:23;;;;;;;5.18;1.70;;;;;;;13.26;40.75;99979.75;6063903;23;19997;-92
2023/11/09 11:58:04;;;;;;;2.03;1.02;;;;;;;13.22;40.52;99959.75;6025847;23;20007;-94
2023/11/09 12:01:20;;;;;;;1.80;0.82;;;;;;;13.27;39.96;99950.81;6026825;23;20031;-93
2023/11/09 12:04:36;;;;;;;1.27;0.90;;;;;;;13.21;40.49;99947.28;6016670;23;20462;-96
2023/11/09 12:17:19;;;;;;;;;;;;;;;;;;;;;
2023/11/09 12:22:46;;;;;;;;;;;;;;;;;;;;;
2023/11/09 12:25:14;;;;;;;;;;;;;;;13.37;39.18;99977.06;6142158;23;20037;-93
2023/11/09 12:28:08;;;;;;;1.45;0.90;;;;;;;13.17;39.30;99940.78;6154265;23;19912;-95
2023/11/09 12:30:51;;;;;;;;;;;;;;;;;;;;;
2023/11/09 12:33:44;;;;;;;2.42;1.25;;;;;;;13.24;40.87;99954.03;6153810;23;20019;-96
2023/11/09 12:36:20;;;;;;;;;;;;;;;;;;;;;
2023/11/09 12:38:48;;;;;;;2.50;0.98;;;;;;;13.18;40.90;99934.31;6144286;23;20028;-92
2023/11/09 12:41:16;;;;;;;3.03;1.45;;;;;;;13.41;40.41;99965.44;6116579;23;20001;-92
2023/11/09 12:44:11;;;;;;;;;;;;;;;;;;;;;
2023/11/09 12:53:27;;;;;;;;;;;;;;;;;;;;;
2023/11/09 12:59:11;;;;;;;2.25;1.17;;;;;;;13.48;39.43;99960.53;6240129;22;20072;-96
2023/11/09 13:07:56;;;;;;;;;;;;;;;;;;;;;
2023/11/09 13:14:18;;;;;;;;;;;;;;;;;;;;;
2023/11/09 13:20:26;;;;;;;14.32;7.72;;;;;;;13.34;39.19;99910.78;6206157;22;20362;-95
2023/11/09 13:23:41;;;;;;;8.75;5.70;;;;;;;13.37;38.67;99899.44;6205322;23;20023;-96
2023/11/09 13:26:35;;;;;;;4.80;2.80;;;;;;;13.49;39.98;99918.88;6198067;23;20329;-95
2023/11/09 13:29:06;;;;;;;3.20;1.48;;;;;;;13.45;41.14;99911.59;6178676;23;20013;-94
2023/11/09 13:41:01;;;;;;;;;;;;;;;;;;;;;
2023/11/09 13:43:49;;;;;;;21.25;11.90;;;;;;;13.51;42.87;99918.63;6214545;23;20020;-96
2023/11/09 13:46:25;;;;;;;9.48;3.88;;;;;;;13.34;42.69;99887.28;6211649;23;20008;-96
2023/11/09 13:48:51;;;;;;;31.65;21.08;;;;;;;13.29;43.05;99887.28;6198002;23;20074;-94
2023/11/09 13:51:29;;;;;;;6.43;3.28;;;;;;;13.31;43.55;99887.00;6167664;23;20005;-93
2023/11/09 13:57:32;;;;;;;7.70;3.28;;;;;;;13.30;44.36;99904.28;6208781;22;20025;-95
2023/11/09 14:00:31;;;;;;;5.95;2.30;;;;;;;13.30;44.31;99907.00;6125464;22;21042;-93
2023/11/09 14:03:30;;;;;;;2.70;1.90;;;;;;;13.13;44.22;99875.63;6164114;23;20026;-96
2023/11/09 14:06:32;;;;;;;5.85;2.80;;;;;;;13.05;44.86;99873.50;6125726;23;20005;-95
2023/11/09 14:09:03;;;;;;;5.07;2.97;;;;;;;13.05;44.87;99899.72;6179195;23;20023;-94